createdAt,value
2023-05-10T06:51:19.648Z,62.06
2023-05-10T06:52:19.076Z,59.80
2023-05-10T06:53:19.188Z,61.85
2023-05-10T06:54:19.061Z,60.07
2023-05-10T06:55:20.403Z,61.14
2023-05-10T06:56:20.159Z,61.08
2023-05-10T06:57:31.085Z,59.94
2023-05-10T06:58:22.177Z,57.68
2023-05-10T06:59:20.270Z,59.66
2023-05-10T07:00:20.515Z,61.53
2023-05-10T07:01:20.388Z,58.87
2023-05-10T07:02:20.148Z,59.41
2023-05-10T07:03:20.187Z,59.04
2023-05-10T07:04:20.129Z,58.90
2023-05-10T07:05:20.282Z,62.51
2023-05-10T07:06:32.296Z,58.93
2023-05-10T07:07:21.055Z,60.27
2023-05-10T07:08:20.100Z,61.46
2023-05-10T07:09:20.051Z,61.07
2023-05-10T07:10:20.018Z,58.67
2023-05-10T07:11:20.043Z,58.17
2023-05-10T07:12:20.114Z,58.58
2023-05-10T07:13:20.128Z,61.00
2023-05-10T07:14:19.984Z,60.17
2023-05-10T07:15:20.000Z,62.07
2023-05-10T07:16:20.034Z,61.05
2023-05-10T07:17:20.042Z,60.87
2023-05-10T07:18:19.969Z,58.62
2023-05-10T07:19:19.915Z,58.57
2023-05-10T07:20:19.888Z,61.46
2023-05-10T07:21:20.018Z,59.94
2023-05-10T07:22:19.933Z,62.72
2023-05-10T07:23:19.870Z,60.63
2023-05-10T07:24:19.958Z,62.22
2023-05-10T07:25:19.866Z,59.02
2023-05-10T07:26:19.938Z,63.30
2023-05-10T07:27:19.845Z,61.07
2023-05-10T07:28:19.824Z,61.48
2023-05-10T07:29:19.834Z,61.54
2023-05-10T07:30:19.907Z,59.04
2023-05-10T07:31:19.960Z,59.85
2023-05-10T07:32:19.841Z,61.32
2023-05-10T07:33:19.809Z,59.48
2023-05-10T07:34:19.782Z,61.12
2023-05-10T07:35:19.834Z,60.23
2023-05-10T07:36:19.858Z,61.03
2023-05-10T07:37:52.363Z,60.59
2023-05-10T07:38:19.970Z,59.12
2023-05-10T07:39:26.692Z,60.89
2023-05-10T07:40:21.862Z,58.58
2023-05-10T07:41:52.337Z,58.53
2023-05-10T07:42:52.282Z,60.37
2023-05-10T07:43:20.633Z,61.78
2023-05-10T07:44:53.444Z,59.11
2023-05-10T07:45:19.840Z,60.57
2023-05-10T07:46:19.819Z,60.25
2023-05-10T07:47:52.258Z,57.26
2023-05-10T07:48:52.236Z,55.80
2023-05-10T07:49:19.898Z,58.23
2023-05-10T07:50:19.932Z,59.79
2023-05-10T07:51:52.252Z,60.77
2023-05-10T07:52:53.177Z,59.63
2023-05-10T07:53:52.149Z,60.54
2023-05-10T07:54:19.866Z,59.86
2023-05-10T07:55:52.146Z,58.06
2023-05-10T07:56:52.246Z,58.32
2023-05-10T08:00:39.788Z,59.10
2023-05-10T08:01:39.736Z,58.42
2023-05-10T08:02:39.857Z,59.29
2023-05-10T08:03:41.966Z,57.85
2023-05-10T08:05:05.749Z,59.37
2023-05-10T08:05:35.706Z,60.31
2023-05-10T08:07:05.745Z,57.01
2023-05-10T08:08:06.744Z,57.74
2023-05-10T08:09:08.014Z,58.62
2023-05-10T08:09:33.236Z,57.51
2023-05-10T08:11:05.698Z,60.63
2023-05-10T08:12:05.679Z,60.26
2023-05-10T08:12:33.312Z,56.65
2023-05-10T08:14:08.041Z,59.03
2023-05-10T08:14:33.254Z,56.49
2023-05-10T08:16:05.704Z,57.87
2023-05-10T08:16:33.424Z,60.89
2023-05-10T08:18:06.835Z,58.93
2023-05-10T08:19:05.802Z,57.09
2023-05-10T08:20:05.584Z,57.98
2023-05-10T08:21:05.593Z,56.56
2023-05-10T08:21:33.174Z,61.18
2023-05-10T08:22:33.204Z,59.96
2023-05-10T08:24:05.621Z,58.67
2023-05-10T08:24:33.293Z,58.91
2023-05-10T08:25:59.556Z,58.43
2023-05-10T08:26:33.247Z,57.96
2023-05-10T08:28:06.776Z,57.23
2023-05-10T08:28:33.233Z,56.23
2023-05-10T08:30:05.559Z,58.08
2023-05-10T08:30:33.125Z,59.62
2023-05-10T08:32:06.841Z,59.47
2023-05-10T08:32:33.053Z,55.13
2023-05-10T08:34:05.425Z,59.34
2023-05-10T08:34:33.173Z,56.48
2023-05-10T08:35:33.538Z,59.28
2023-05-10T08:36:32.880Z,56.68
2023-05-10T08:37:32.824Z,54.57
2023-05-10T08:39:07.707Z,54.86
2023-05-10T08:39:34.071Z,57.59
2023-05-10T08:41:06.892Z,56.76
2023-05-10T08:41:33.083Z,59.04
2023-05-10T08:43:05.402Z,57.32
2023-05-10T08:43:33.039Z,57.08
2023-05-10T08:44:33.052Z,55.91
2023-05-10T08:45:32.779Z,59.58
2023-05-10T08:47:06.871Z,56.46
2023-05-10T08:47:33.673Z,52.59
2023-05-10T08:49:05.310Z,55.57
2023-05-10T08:49:33.042Z,56.60
2023-05-10T08:51:06.617Z,55.95
2023-05-10T08:51:32.911Z,55.38
2023-05-10T08:53:05.336Z,58.66
2023-05-10T08:53:32.973Z,58.24
2023-05-10T08:55:07.498Z,57.79
2023-05-10T08:55:32.970Z,57.50
2023-05-10T08:57:05.365Z,56.40
2023-05-10T08:57:32.881Z,59.26
2023-05-10T08:59:05.355Z,56.93
2023-05-10T08:59:32.947Z,57.96
2023-05-10T09:00:32.877Z,56.52
2023-05-10T09:02:06.259Z,55.75
2023-05-10T09:02:32.936Z,57.12
2023-05-10T09:04:19.128Z,55.58
2023-05-10T09:04:32.992Z,55.73
2023-05-10T09:05:33.300Z,55.99
2023-05-10T09:07:05.217Z,54.95
2023-05-10T09:07:34.212Z,56.60
2023-05-10T09:09:06.259Z,57.68
2023-05-10T09:09:32.745Z,59.32
2023-05-10T09:10:32.656Z,55.43
2023-05-10T09:11:32.535Z,55.38
2023-05-10T09:12:32.489Z,56.77
2023-05-10T09:13:32.623Z,53.37
2023-05-10T09:14:32.558Z,52.27
2023-05-10T09:16:32.714Z,52.05
2023-05-10T09:17:32.820Z,59.09
2023-05-10T09:19:06.381Z,59.87
2023-05-10T09:19:32.740Z,54.91
2023-05-10T09:20:32.631Z,54.54
2023-05-10T09:22:06.211Z,56.52
2023-05-10T09:22:34.520Z,56.86
2023-05-10T09:24:07.651Z,55.96
2023-05-10T09:24:32.889Z,58.67
2023-05-10T09:25:32.540Z,56.23
2023-05-10T09:27:04.989Z,54.59
2023-05-10T09:28:06.344Z,59.48
2023-05-10T09:28:32.788Z,56.77
2023-05-10T09:30:04.969Z,57.80
2023-05-10T09:30:32.778Z,56.67
2023-05-10T09:32:04.879Z,58.15
2023-05-10T09:32:32.606Z,56.26
2023-05-10T09:34:04.834Z,56.34
2023-05-10T09:35:04.857Z,56.88
2023-05-10T09:35:32.784Z,58.84
2023-05-10T09:37:06.024Z,58.16
2023-05-10T09:37:32.554Z,51.94
2023-05-10T09:39:04.835Z,55.52
2023-05-10T09:40:07.283Z,56.49
2023-05-10T09:41:04.803Z,56.22
2023-05-10T09:41:32.610Z,60.13
2023-05-10T09:43:06.023Z,58.52
2023-05-10T09:43:32.358Z,53.74
2023-05-10T09:45:05.045Z,58.01
2023-05-10T09:46:07.130Z,59.09
2023-05-10T09:46:32.435Z,59.85
2023-05-10T09:48:04.859Z,56.28
2023-05-10T09:49:04.786Z,55.10
2023-05-10T09:49:32.382Z,57.93
2023-05-10T09:51:06.177Z,58.93
2023-05-10T09:51:58.715Z,56.80
2023-05-10T09:53:04.858Z,57.59
2023-05-10T09:54:04.754Z,59.53
2023-05-10T09:55:04.730Z,59.75
2023-05-10T09:55:32.227Z,57.59
2023-05-10T09:57:05.766Z,56.27
2023-05-10T09:58:04.658Z,56.28
2023-05-10T09:59:04.638Z,59.73
2023-05-10T10:00:05.846Z,58.77
2023-05-10T10:01:04.878Z,54.88
2023-05-10T10:02:04.685Z,57.66
2023-05-10T10:03:05.908Z,55.47
2023-05-10T10:03:32.112Z,58.46
2023-05-10T10:05:06.009Z,56.65
2023-05-10T10:06:04.600Z,57.09
2023-05-10T10:07:04.717Z,58.34
2023-05-10T10:07:32.308Z,58.77
2023-05-10T10:09:04.577Z,57.93
2023-05-10T10:09:32.161Z,60.44
2023-05-10T10:11:04.526Z,57.66
2023-05-10T10:11:32.193Z,52.78
2023-05-10T10:13:04.468Z,55.75
2023-05-10T10:13:32.104Z,58.49
2023-05-10T10:15:05.619Z,58.34
2023-05-10T10:15:32.116Z,56.59
2023-05-10T10:17:08.082Z,57.83
2023-05-10T10:18:04.485Z,55.56
2023-05-10T10:19:06.708Z,58.63
2023-05-10T10:20:04.431Z,59.36
2023-05-10T10:20:32.142Z,55.76
2023-05-10T10:22:04.468Z,55.24
2023-05-10T10:22:32.067Z,58.52
2023-05-10T10:23:32.050Z,58.00
2023-05-10T10:24:31.793Z,57.06
2023-05-10T10:26:04.345Z,57.45
2023-05-10T10:27:16.835Z,55.76
2023-05-10T10:27:32.019Z,54.16
2023-05-10T10:29:06.835Z,56.22
2023-05-10T10:30:04.280Z,55.17
2023-05-10T10:30:31.931Z,58.94
2023-05-10T10:32:04.313Z,56.61
2023-05-10T10:32:32.005Z,57.49
2023-05-10T10:34:06.312Z,52.77
2023-05-10T10:35:04.265Z,56.55
2023-05-10T10:36:04.276Z,48.50
2023-05-10T10:37:04.231Z,54.87
2023-05-10T10:38:05.471Z,53.35
2023-05-10T10:39:04.362Z,53.77
2023-05-10T10:39:31.921Z,52.85
2023-05-10T10:41:04.201Z,52.59
2023-05-10T10:41:31.840Z,55.82
2023-05-10T10:43:06.533Z,55.31
2023-05-10T10:43:31.795Z,56.91
2023-05-10T10:45:04.297Z,54.41
2023-05-10T10:46:04.167Z,57.26
2023-05-10T10:47:06.663Z,55.53
2023-05-10T10:48:04.180Z,55.90
2023-05-10T10:49:04.147Z,57.84
2023-05-10T10:50:04.310Z,54.32
2023-05-10T10:51:05.244Z,55.68
2023-05-10T10:52:05.227Z,57.65
2023-05-10T10:52:31.652Z,60.21
2023-05-10T10:53:31.686Z,55.45
2023-05-10T10:54:31.565Z,58.64
2023-05-10T10:56:06.239Z,56.87
2023-05-10T10:56:32.351Z,57.13
2023-05-10T11:00:46.524Z,56.44
2023-05-10T11:01:46.400Z,56.09
2023-05-10T11:02:46.450Z,59.60
2023-05-10T11:03:46.505Z,57.75
2023-05-10T11:04:46.511Z,56.82
2023-05-10T11:10:10.705Z,57.30
2023-05-10T11:11:09.626Z,57.92
2023-05-10T11:12:01.916Z,57.89
2023-05-10T11:13:09.555Z,55.36
2023-05-10T11:14:09.616Z,56.65
2023-05-10T11:15:11.713Z,56.08
2023-05-10T11:16:09.498Z,56.26
2023-05-10T11:17:03.207Z,55.69
2023-05-10T11:18:35.608Z,55.41
2023-05-10T11:19:37.850Z,58.25
2023-05-10T11:20:04.078Z,54.36
2023-05-10T11:21:02.963Z,53.91
2023-05-10T11:22:02.882Z,56.77
2023-05-10T11:23:35.466Z,57.80
2023-05-10T11:24:03.100Z,60.04
2023-05-10T11:25:35.422Z,59.12
2023-05-10T11:26:03.234Z,58.44
2023-05-10T11:27:03.213Z,55.80
2023-05-10T11:28:31.495Z,56.42
2023-05-10T11:29:03.065Z,58.34
2023-05-10T11:30:35.444Z,58.68
2023-05-10T11:31:35.455Z,58.37
2023-05-10T11:32:36.531Z,57.39
2023-05-10T11:33:03.091Z,58.79
2023-05-10T11:34:36.608Z,57.98
2023-05-10T11:35:02.923Z,59.37
2023-05-10T11:36:41.467Z,59.56
2023-05-10T11:37:03.014Z,56.81
2023-05-10T11:38:36.697Z,60.00
2023-05-10T11:50:19.444Z,60.11
2023-05-10T11:51:46.092Z,59.20
2023-05-10T11:52:12.718Z,61.37
2023-05-10T11:53:12.785Z,60.44
2023-05-10T11:54:12.543Z,59.21
2023-05-10T11:55:12.523Z,59.97
2023-05-10T11:56:12.457Z,59.74
2023-05-10T12:00:26.540Z,61.19
2023-05-10T12:04:14.902Z,62.06
2023-05-10T12:05:14.648Z,62.04
2023-05-10T12:06:14.875Z,60.42
2023-05-10T12:07:15.818Z,59.27
2023-05-10T12:08:15.842Z,59.23
2023-05-10T12:09:16.707Z,61.89
2023-05-10T12:10:16.325Z,61.33
2023-05-10T12:11:15.813Z,58.59
2023-05-10T12:12:48.610Z,60.90
2023-05-10T12:13:15.890Z,60.44
2023-05-10T12:14:48.354Z,60.21
2023-05-10T12:15:16.661Z,59.09
2023-05-10T12:16:48.414Z,59.47
2023-05-10T12:17:49.467Z,58.70
2023-05-10T12:18:15.897Z,58.87
2023-05-10T12:23:35.311Z,59.58
2023-05-10T12:24:37.679Z,60.04
2023-05-10T12:25:27.743Z,57.53
2023-05-10T12:26:35.490Z,60.18
2023-05-10T12:27:35.312Z,59.76
2023-05-10T12:29:02.696Z,59.44
2023-05-10T12:30:03.691Z,58.82
2023-05-10T12:35:48.775Z,58.05
2023-05-10T12:44:14.064Z,57.51
2023-05-10T12:45:13.029Z,58.66
2023-05-10T12:46:22.937Z,57.63
2023-05-10T12:47:12.925Z,58.49
2023-05-10T12:48:40.278Z,56.50
2023-05-10T12:49:40.197Z,57.95
2023-05-10T12:53:31.145Z,58.03
2023-05-10T12:54:28.891Z,58.78
2023-05-10T12:55:28.991Z,54.66
2023-05-10T12:56:29.512Z,56.28
2023-05-10T12:57:30.037Z,56.97
2023-05-10T12:58:35.497Z,56.48
2023-05-10T12:59:28.874Z,55.72
2023-05-10T13:00:21.164Z,57.67
2023-05-10T13:04:45.557Z,57.31
2023-05-10T13:05:46.969Z,58.39
2023-05-10T13:06:47.593Z,57.04
2023-05-10T13:07:45.650Z,55.12
2023-05-10T13:09:06.704Z,55.64
2023-05-10T13:09:39.067Z,56.68
2023-05-10T13:11:13.797Z,56.23
2023-05-10T13:12:12.780Z,56.97
2023-05-10T13:13:11.409Z,57.28
2023-05-10T13:14:12.426Z,53.21
2023-05-10T13:14:39.496Z,55.36
2023-05-10T13:16:12.930Z,56.92
2023-05-10T13:16:39.123Z,58.14
2023-05-10T13:18:12.748Z,58.85
2023-05-10T13:19:11.428Z,57.60
2023-05-10T13:20:11.515Z,57.84
2023-05-10T13:21:12.589Z,55.21
2023-05-10T13:22:11.358Z,57.00
2023-05-10T13:23:11.285Z,55.55
2023-05-10T13:23:39.071Z,56.24
2023-05-10T13:24:39.029Z,55.59
2023-05-10T13:30:17.217Z,54.69
2023-05-10T13:31:24.692Z,55.43
2023-05-10T13:32:17.288Z,58.04
2023-05-10T13:33:44.609Z,57.01
2023-05-10T13:34:18.362Z,58.98
2023-05-10T13:35:52.818Z,59.03
2023-05-10T13:36:18.211Z,55.14
2023-05-10T13:37:18.206Z,57.24
2023-05-10T13:38:50.594Z,56.64
2023-05-10T13:42:33.623Z,58.51
2023-05-10T13:43:33.584Z,58.90
2023-05-10T13:45:08.323Z,57.74
2023-05-10T13:46:18.492Z,55.66
2023-05-10T13:46:35.042Z,58.89
2023-05-10T13:48:07.250Z,59.17
2023-05-10T13:49:08.354Z,57.81
2023-05-10T13:49:34.831Z,61.10
2023-05-10T13:51:01.421Z,57.30
2023-05-10T13:51:34.830Z,61.03
2023-05-10T13:53:10.147Z,59.39
2023-05-10T13:53:34.919Z,56.02
2023-05-10T14:01:43.860Z,60.59
2023-05-10T14:02:44.108Z,62.43
2023-05-10T14:03:43.936Z,61.99
2023-05-10T14:04:43.674Z,62.44
2023-05-10T14:05:43.705Z,61.95
2023-05-10T14:06:44.318Z,62.92
2023-05-10T14:07:44.800Z,61.63
2023-05-10T14:08:49.326Z,62.56
2023-05-10T14:09:45.577Z,61.16
2023-05-10T14:10:46.668Z,61.76
2023-05-10T14:11:45.363Z,61.63
2023-05-10T14:12:44.860Z,62.29
2023-05-10T14:13:45.210Z,60.11
2023-05-10T14:14:45.466Z,60.29
2023-05-10T14:15:44.780Z,60.43
2023-05-10T14:16:44.926Z,61.14
2023-05-10T14:17:44.772Z,59.64
2023-05-10T14:18:44.776Z,60.40
2023-05-10T14:19:44.896Z,61.28
2023-05-10T14:20:45.527Z,62.39
2023-05-10T14:21:44.748Z,61.67
2023-05-10T14:22:44.662Z,61.32
2023-05-10T14:23:44.677Z,62.33
2023-05-10T14:24:44.753Z,61.38
2023-05-10T14:25:44.666Z,61.59
2023-05-10T14:26:44.717Z,62.33
2023-05-10T14:27:44.618Z,61.06
2023-05-10T14:28:44.643Z,61.82
2023-05-10T14:29:44.577Z,59.77
2023-05-10T14:30:44.723Z,61.12
2023-05-10T14:31:45.262Z,60.41
2023-05-10T14:32:44.723Z,61.65
2023-05-10T14:33:44.540Z,61.97
2023-05-10T14:34:44.570Z,61.45
2023-05-10T14:35:44.575Z,60.21
2023-05-10T14:36:44.622Z,60.07
2023-05-10T14:37:45.412Z,60.03
2023-05-10T14:38:44.550Z,59.48
2023-05-10T14:39:44.555Z,60.14
2023-05-10T14:40:44.690Z,58.80
2023-05-10T14:41:44.582Z,59.03
2023-05-10T14:42:44.526Z,57.12
2023-05-10T14:43:44.670Z,59.51
2023-05-10T14:44:44.566Z,59.76
2023-05-10T14:45:44.572Z,59.62
2023-05-10T14:47:17.017Z,58.50
2023-05-10T14:47:44.792Z,59.59
2023-05-10T14:48:44.669Z,58.22
2023-05-10T14:52:59.882Z,56.05
2023-05-10T14:53:59.912Z,58.93
2023-05-10T14:57:49.312Z,54.40
2023-05-10T14:58:50.354Z,54.85
2023-05-10T15:00:22.693Z,56.37
2023-05-10T15:00:50.364Z,56.02
2023-05-10T15:02:22.934Z,56.75
2023-05-10T15:02:50.391Z,55.75
2023-05-10T15:03:50.230Z,59.44
2023-05-10T15:04:50.087Z,58.00
2023-05-10T15:06:23.314Z,59.41
2023-05-10T15:06:50.260Z,55.85
2023-05-10T15:08:23.843Z,57.38
2023-05-10T15:09:23.347Z,57.50
2023-05-10T15:09:50.246Z,57.59
2023-05-10T15:10:50.245Z,56.51
2023-05-10T15:11:49.985Z,58.41
2023-05-10T15:13:24.909Z,57.48
2023-05-10T15:14:22.678Z,60.70
2023-05-10T15:15:22.515Z,59.24
2023-05-10T15:20:22.444Z,58.08
2023-05-10T15:21:23.912Z,58.34
2023-05-10T15:22:14.772Z,56.30
2023-05-10T15:23:16.018Z,59.57
2023-05-10T15:24:48.484Z,57.65
2023-05-10T15:25:16.270Z,60.00
2023-05-10T15:26:50.475Z,60.24
2023-05-10T15:27:48.421Z,58.92
2023-05-10T15:28:16.129Z,59.01
2023-05-10T15:29:16.081Z,59.79
2023-05-10T15:30:15.792Z,61.14
2023-05-10T15:31:49.608Z,61.78
2023-05-10T15:32:16.373Z,62.09
2023-05-10T15:33:16.058Z,64.73
2023-05-10T15:34:15.798Z,63.53
2023-05-10T15:36:05.071Z,61.90
2023-05-10T15:36:16.012Z,61.38
2023-05-10T15:37:49.288Z,62.81
2023-05-10T15:38:16.003Z,61.52
2023-05-10T15:39:15.928Z,61.34
2023-05-10T15:40:15.722Z,61.34
2023-05-10T15:41:15.734Z,60.94
2023-05-10T15:42:15.640Z,60.07
2023-05-10T15:43:15.639Z,61.16
2023-05-10T15:44:15.655Z,61.00
2023-05-10T15:45:15.840Z,62.72
2023-05-10T15:46:15.623Z,60.36
2023-05-10T15:47:48.268Z,62.30
2023-05-10T15:48:15.827Z,61.81
2023-05-10T15:49:15.940Z,60.66
2023-05-10T15:50:49.673Z,61.72
2023-05-10T15:51:15.859Z,60.39
2023-05-10T15:55:31.346Z,61.90
2023-05-10T15:56:31.288Z,62.97
2023-05-10T15:57:31.302Z,58.52
2023-05-10T15:58:31.213Z,58.52
2023-05-10T15:59:31.162Z,58.23
2023-05-10T16:00:32.393Z,58.50
2023-05-10T16:01:32.525Z,59.62
2023-05-10T16:02:32.360Z,56.80
2023-05-10T16:04:07.142Z,59.59
2023-05-10T16:04:32.555Z,58.80
2023-05-10T16:06:04.904Z,57.25
2023-05-10T16:06:32.710Z,59.18
2023-05-10T16:11:48.387Z,55.31
2023-05-10T16:12:40.518Z,57.97
2023-05-10T16:13:40.512Z,56.66
2023-05-10T16:14:48.058Z,55.34
2023-05-10T16:15:48.221Z,56.28
2023-05-10T16:24:14.437Z,53.59
2023-05-10T16:25:14.320Z,53.65
2023-05-10T16:26:22.050Z,58.17
2023-05-10T16:27:14.405Z,59.36
2023-05-10T16:28:14.304Z,55.64
2023-05-10T16:29:14.304Z,54.99
2023-05-10T16:30:14.230Z,58.21
2023-05-10T16:31:15.395Z,55.13
2023-05-10T16:32:49.361Z,57.77
2023-05-10T16:33:15.699Z,55.16
2023-05-10T16:34:15.588Z,56.63
2023-05-10T16:35:15.454Z,55.25
2023-05-10T16:36:15.357Z,57.92
2023-05-10T16:37:47.851Z,54.65
2023-05-10T16:38:15.683Z,56.12
2023-05-10T16:44:50.553Z,56.42
2023-05-10T16:45:50.558Z,55.09
2023-05-10T16:46:51.783Z,56.58
2023-05-10T16:47:51.613Z,56.87
2023-05-10T16:48:51.602Z,53.74
2023-05-10T16:49:51.884Z,57.75
2023-05-10T16:50:51.663Z,59.42
2023-05-10T16:56:45.004Z,56.18
2023-05-10T16:57:44.989Z,55.44
2023-05-10T16:58:46.325Z,59.13
2023-05-10T16:59:46.082Z,55.36
2023-05-10T17:00:46.061Z,57.77
2023-05-10T17:01:46.137Z,54.70
2023-05-10T17:02:46.303Z,55.74
2023-05-10T17:03:46.081Z,54.49
2023-05-10T17:04:46.079Z,57.78
2023-05-10T17:05:45.994Z,55.38
2023-05-10T17:06:46.036Z,56.19
2023-05-10T17:07:45.973Z,56.06
2023-05-10T17:08:46.019Z,55.89
2023-05-10T17:09:46.775Z,57.90
2023-05-10T17:10:45.978Z,55.64
2023-05-10T17:11:46.196Z,51.90
2023-05-10T17:12:45.908Z,56.03
2023-05-10T17:13:45.921Z,55.68
2023-05-10T17:14:46.887Z,55.26
2023-05-10T17:15:45.989Z,54.91
2023-05-10T17:16:45.901Z,56.38
2023-05-10T17:17:45.938Z,53.24
2023-05-10T17:18:45.988Z,56.63
2023-05-10T17:19:45.874Z,55.10
2023-05-10T17:20:45.866Z,57.97
2023-05-10T17:21:45.855Z,59.15
2023-05-10T17:22:45.875Z,57.70
2023-05-10T17:23:45.816Z,55.99
2023-05-10T17:24:45.831Z,55.61
2023-05-10T17:25:45.853Z,53.53
2023-05-10T17:26:45.763Z,54.81
2023-05-10T17:27:45.798Z,56.42
2023-05-10T17:28:45.769Z,56.07
2023-05-10T17:29:45.758Z,56.56
2023-05-10T17:30:45.740Z,56.24
2023-05-10T17:31:45.853Z,57.07
2023-05-10T17:32:45.773Z,53.85
2023-05-10T17:33:45.726Z,56.81
2023-05-10T17:34:45.808Z,52.48
2023-05-10T17:35:45.702Z,55.47
2023-05-10T17:36:45.696Z,54.85
2023-05-10T17:37:45.686Z,54.24
2023-05-10T17:38:45.684Z,54.54
2023-05-10T17:39:45.642Z,54.64
2023-05-10T17:40:45.631Z,55.57
2023-05-10T17:41:45.772Z,54.94
2023-05-10T17:42:45.646Z,54.66
2023-05-10T17:43:45.640Z,51.98
2023-05-10T17:44:45.673Z,55.49
2023-05-10T17:45:45.670Z,54.13
2023-05-10T17:46:45.598Z,52.03
2023-05-10T17:47:45.604Z,54.16
2023-05-10T17:48:45.631Z,54.11
2023-05-10T17:49:45.600Z,54.98
2023-05-10T17:50:45.580Z,55.78
2023-05-10T17:51:45.544Z,55.52
2023-05-10T17:52:45.537Z,56.00
2023-05-10T17:53:45.559Z,55.12
2023-05-10T17:54:45.482Z,55.85
2023-05-10T17:55:45.548Z,55.96
2023-05-10T17:56:45.509Z,55.39
2023-05-10T17:57:45.517Z,57.55
2023-05-10T17:58:45.492Z,58.94
2023-05-10T17:59:45.531Z,57.48
2023-05-10T18:00:45.619Z,55.28
2023-05-10T18:01:45.662Z,53.14
2023-05-10T18:02:45.507Z,56.74
2023-05-10T18:03:45.449Z,52.09
2023-05-10T18:04:45.594Z,55.36
2023-05-10T18:05:45.473Z,57.82
2023-05-10T18:06:45.396Z,57.19
2023-05-10T18:07:45.840Z,55.60
2023-05-10T18:13:58.139Z,57.43
2023-05-10T18:14:58.061Z,54.96
2023-05-10T18:15:57.804Z,54.87
2023-05-10T18:17:32.291Z,52.91
2023-05-10T18:17:58.500Z,56.92
2023-05-10T18:18:57.929Z,52.97
2023-05-10T18:19:57.710Z,55.98
2023-05-10T18:20:57.793Z,54.62
2023-05-10T18:21:57.761Z,50.76
2023-05-10T18:22:57.718Z,57.06
2023-05-10T18:23:57.783Z,56.76
2023-05-10T18:24:57.738Z,54.14
2023-05-10T18:25:57.676Z,55.94
2023-05-10T18:26:57.575Z,53.15
2023-05-10T18:27:57.709Z,54.97
2023-05-10T18:28:59.448Z,54.35
2023-05-10T18:29:57.660Z,56.21
2023-05-10T18:30:57.824Z,57.42
2023-05-10T18:31:57.648Z,51.35
2023-05-10T18:32:58.100Z,53.72
2023-05-10T18:33:57.556Z,56.14
2023-05-10T18:34:57.627Z,53.73
2023-05-10T18:35:57.595Z,53.83
2023-05-10T18:36:57.928Z,55.35
2023-05-10T18:37:57.994Z,56.19
2023-05-10T18:38:58.082Z,52.37
2023-05-10T18:39:57.851Z,54.01
2023-05-10T18:40:57.770Z,56.56
2023-05-10T18:41:57.577Z,54.36
2023-05-10T18:42:58.724Z,56.53
2023-05-10T18:43:58.364Z,55.98
2023-05-10T18:45:00.471Z,53.94
2023-05-10T18:46:00.380Z,53.82
2023-05-10T18:46:57.477Z,54.09
2023-05-10T18:47:58.140Z,52.34
2023-05-10T18:48:57.458Z,53.28
2023-05-10T18:49:57.496Z,54.89
2023-05-10T18:50:57.433Z,54.78
2023-05-10T18:51:57.490Z,54.68
2023-05-10T18:52:57.377Z,55.45
2023-05-10T18:53:57.330Z,54.43
2023-05-10T18:54:57.321Z,54.59
2023-05-10T18:55:57.649Z,56.92
2023-05-10T18:56:57.842Z,53.52
2023-05-10T18:58:00.179Z,54.46
2023-05-10T18:58:57.495Z,57.96
2023-05-10T18:59:57.694Z,56.70
2023-05-10T19:00:58.441Z,54.92
2023-05-10T19:01:58.811Z,56.96
2023-05-10T19:02:58.621Z,58.59
2023-05-10T19:04:38.384Z,55.98
2023-05-10T19:04:59.547Z,55.98
2023-05-10T19:05:57.517Z,57.98
2023-05-10T19:06:57.476Z,57.36
2023-05-10T19:07:57.505Z,55.27
2023-05-10T19:09:05.989Z,55.24
2023-05-10T19:09:57.412Z,60.44
2023-05-10T19:10:57.805Z,55.45
2023-05-10T19:11:57.589Z,51.39
2023-05-10T19:12:58.502Z,55.24
2023-05-10T19:13:59.363Z,52.37
2023-05-10T19:14:57.796Z,52.98
2023-05-10T19:15:59.241Z,52.91
2023-05-10T19:17:01.204Z,55.53
2023-05-10T19:17:58.339Z,52.88
2023-05-10T19:18:57.272Z,49.84
2023-05-10T19:19:58.262Z,49.40
2023-05-10T19:20:58.021Z,52.42
2023-05-10T19:21:57.121Z,50.31
2023-05-10T19:23:09.276Z,54.65
2023-05-10T19:24:00.140Z,50.24
2023-05-10T19:24:57.811Z,49.68
2023-05-10T19:25:58.600Z,49.76
2023-05-10T19:26:57.611Z,53.30
2023-05-10T19:27:57.131Z,51.95
2023-05-10T19:29:40.852Z,53.44
2023-05-10T19:29:59.704Z,54.59
2023-05-10T19:30:57.712Z,53.26
2023-05-10T19:31:57.783Z,53.32
2023-05-10T19:32:57.685Z,55.42
2023-05-10T19:34:00.541Z,51.20
2023-05-10T19:34:57.992Z,51.93
2023-05-10T19:35:57.418Z,51.42
2023-05-10T19:36:57.961Z,49.75
2023-05-10T19:37:58.420Z,54.83
2023-05-10T19:38:57.070Z,53.80
2023-05-10T19:39:56.908Z,53.20
2023-05-10T19:40:56.904Z,53.14
2023-05-10T19:41:58.867Z,57.42
2023-05-10T19:42:57.084Z,51.45
2023-05-10T19:43:57.373Z,53.06
2023-05-10T19:44:56.822Z,53.26
2023-05-10T19:45:58.236Z,53.35
2023-05-10T19:46:57.240Z,51.99
2023-05-10T19:47:57.067Z,54.24
2023-05-10T19:48:57.359Z,50.65
2023-05-10T19:49:58.105Z,51.35
2023-05-10T19:50:57.267Z,51.88
2023-05-10T19:51:57.343Z,55.31
2023-05-10T19:52:57.480Z,46.53
2023-05-10T19:58:25.849Z,54.60
2023-05-10T20:00:13.637Z,0.00
2023-05-10T20:03:19.631Z,51.72
2023-05-10T20:04:19.501Z,55.47
2023-05-10T20:12:21.351Z,47.37
2023-05-10T20:13:20.316Z,46.87
2023-05-10T20:14:27.663Z,44.89
2023-05-10T20:15:25.777Z,46.73
2023-05-10T20:16:22.608Z,53.39
2023-05-10T20:17:21.756Z,51.29
2023-05-10T20:18:21.824Z,47.49
2023-05-10T20:19:21.207Z,49.32
2023-05-10T20:20:21.598Z,56.49
2023-05-10T20:21:21.745Z,53.09
2023-05-10T20:22:21.121Z,52.70
2023-05-10T20:23:21.339Z,51.28
2023-05-10T20:28:05.409Z,49.56
2023-05-10T20:29:05.294Z,49.55
2023-05-10T20:30:05.058Z,54.16
2023-05-10T20:31:04.981Z,54.10
2023-05-10T20:32:06.298Z,48.54
2023-05-10T20:33:06.277Z,53.41
2023-05-10T20:34:06.310Z,55.30
2023-05-10T20:35:06.251Z,48.95
2023-05-10T20:36:06.867Z,48.77
2023-05-10T20:37:07.757Z,51.59
2023-05-10T20:38:06.346Z,55.07
2023-05-10T20:39:06.301Z,53.20
2023-05-10T20:40:06.525Z,48.57
2023-05-10T20:41:06.188Z,50.89
2023-05-10T20:42:06.245Z,50.31
2023-05-10T20:43:06.202Z,52.56
2023-05-10T20:44:06.238Z,55.25
2023-05-10T20:45:06.274Z,52.91
2023-05-10T20:46:06.140Z,54.18
2023-05-10T20:47:06.183Z,52.57
2023-05-10T20:48:06.300Z,52.44
2023-05-10T20:49:06.143Z,50.89
2023-05-10T20:50:06.152Z,52.27
2023-05-10T20:51:06.154Z,49.57
2023-05-10T20:52:06.901Z,51.58
2023-05-10T20:53:06.191Z,50.57
2023-05-10T20:54:06.288Z,50.02
2023-05-10T20:55:06.142Z,49.86
2023-05-10T20:56:06.480Z,49.83
2023-05-10T20:57:06.060Z,52.08
2023-05-10T20:58:06.120Z,49.46
2023-05-10T20:59:06.081Z,53.15
2023-05-10T21:00:06.004Z,52.75
2023-05-10T21:01:06.030Z,50.95
2023-05-10T21:02:06.070Z,50.00
2023-05-10T21:03:06.258Z,50.13
2023-05-10T21:04:05.945Z,47.44
2023-05-10T21:05:06.067Z,47.30
2023-05-10T21:06:06.103Z,53.05
2023-05-10T21:07:05.939Z,48.65
2023-05-10T21:08:05.924Z,53.46
2023-05-10T21:09:05.823Z,57.95
2023-05-10T21:10:05.900Z,55.38
2023-05-10T21:11:05.908Z,45.38
2023-05-10T21:12:05.765Z,48.39
2023-05-10T21:13:06.151Z,51.19
2023-05-10T21:14:05.809Z,43.17
2023-05-10T21:15:06.876Z,46.99
2023-05-10T21:16:07.303Z,46.86
2023-05-10T21:17:06.513Z,49.41
2023-05-10T21:18:06.056Z,47.06
2023-05-10T21:19:05.918Z,48.51
2023-05-10T21:20:06.026Z,50.09
2023-05-10T21:21:05.946Z,48.21
2023-05-10T21:22:06.071Z,47.79
2023-05-10T21:23:05.984Z,48.94
2023-05-10T21:24:06.071Z,54.37
2023-05-10T21:25:05.816Z,50.07
2023-05-10T21:26:05.783Z,51.72
2023-05-10T21:27:05.839Z,52.27
2023-05-10T21:28:05.591Z,51.05
2023-05-10T21:29:06.239Z,54.55
2023-05-10T21:30:05.911Z,48.18
2023-05-10T21:31:05.622Z,51.23
2023-05-10T21:32:05.871Z,50.23
2023-05-10T21:33:05.782Z,51.89
2023-05-10T21:34:05.767Z,55.47
2023-05-10T21:35:05.747Z,45.83
2023-05-10T21:36:05.629Z,52.16
2023-05-10T21:37:05.796Z,43.03
2023-05-10T21:38:05.689Z,46.91
2023-05-10T21:39:05.646Z,49.53
2023-05-10T21:40:05.763Z,47.71
2023-05-10T21:41:05.759Z,49.03
2023-05-10T21:42:05.869Z,52.09
2023-05-10T21:43:05.704Z,44.33
2023-05-10T21:44:05.592Z,46.30
2023-05-10T21:45:05.619Z,50.80
2023-05-10T21:46:05.602Z,49.68
2023-05-10T21:47:06.976Z,50.71
2023-05-10T21:48:05.548Z,51.35
2023-05-10T21:49:05.523Z,50.62
2023-05-10T21:50:05.957Z,40.52